Time;durP1;ratioP1;P1;durP2;ratioP2;P2;SDS_P1;SDS_P2;PMS_P1;PMS_P2;Temp;Humidity;BMP_temperature;BMP_pressure;BME280_temperature;BME280_humidity;BME280_pressure;Samples;Min_cycle;Max_cycle;Signal;HPM_P1;HPM_P2
2023/07/11 00:00:43;;;;;;;7.80;3.63;;;;;;;17.93;69.30;101518.91;5084452;28;20047;-84
2023/07/11 00:03:09;;;;;;;6.50;3.90;;;;;;;17.93;69.25;101513.47;5093003;28;20036;-84
2023/07/11 00:05:34;;;;;;;6.90;3.22;;;;;;;17.90;69.34;101508.47;5087473;28;20069;-84
2023/07/11 00:08:00;;;;;;;5.43;3.53;;;;;;;17.91;69.20;101515.56;5091151;28;20032;-84
2023/07/11 00:10:25;;;;;;;7.18;3.83;;;;;;;17.86;69.56;101515.41;5083208;28;20034;-85
2023/07/11 00:12:50;;;;;;;5.63;3.72;;;;;;;17.87;69.58;101506.19;5100477;28;20020;-84
2023/07/11 00:15:16;;;;;;;6.35;3.70;;;;;;;17.80;69.80;101509.00;5095105;28;20024;-84
2023/07/11 00:17:47;;;;;;;6.15;3.65;;;;;;;17.82;69.62;101500.63;5093279;28;20036;-84
2023/07/11 00:20:13;;;;;;;6.05;3.72;;;;;;;17.78;69.95;101496.69;5087968;28;20467;-84
2023/07/11 00:22:39;;;;;;;9.43;4.30;;;;;;;17.80;69.76;101497.28;5086154;28;20033;-84
2023/07/11 00:25:05;;;;;;;6.45;3.97;;;;;;;17.78;69.89;101493.97;5092756;28;20031;-84
2023/07/11 00:27:30;;;;;;;6.25;4.05;;;;;;;17.78;69.90;101493.97;5085727;28;20432;-84
2023/07/11 00:29:55;;;;;;;5.97;3.60;;;;;;;17.75;70.17;101491.69;5095861;28;20028;-84
2023/07/11 00:32:21;;;;;;;6.22;3.72;;;;;;;17.72;69.95;101495.72;5090062;28;20035;-84
2023/07/11 00:34:46;;;;;;;7.13;4.50;;;;;;;17.72;70.13;101493.00;5082868;28;20023;-84
2023/07/11 00:37:12;;;;;;;8.00;4.13;;;;;;;17.65;70.55;101490.34;5088365;28;20088;-84
2023/07/11 00:39:37;;;;;;;5.85;4.15;;;;;;;17.63;70.64;101478.03;5093561;28;20028;-84
2023/07/11 00:42:04;;;;;;;8.20;4.20;;;;;;;17.60;70.67;101473.88;5083468;28;20032;-84
2023/07/11 00:44:56;;;;;;;8.00;4.15;;;;;;;17.58;70.75;101484.16;5096953;28;20032;-84
2023/07/11 00:47:23;;;;;;;8.02;4.20;;;;;;;17.52;70.88;101475.03;5075000;28;20032;-84
2023/07/11 00:49:49;;;;;;;6.22;4.30;;;;;;;17.52;71.18;101472.28;5090970;28;20035;-85
2023/07/11 00:52:15;;;;;;;6.28;3.67;;;;;;;17.55;70.88;101468.28;5077257;28;20028;-85
2023/07/11 00:54:41;;;;;;;5.35;4.13;;;;;;;17.63;70.50;101473.41;5092605;28;20081;-85
2023/07/11 00:57:07;;;;;;;6.03;4.47;;;;;;;17.61;71.00;101472.81;5053638;28;20033;-85
2023/07/11 00:59:39;;;;;;;9.43;4.53;;;;;;;17.59;70.96;101466.75;5070743;28;20032;-85
2023/07/11 01:02:08;;;;;;;7.82;4.72;;;;;;;17.61;70.84;101467.38;5099411;28;20119;-84
2023/07/11 01:04:35;;;;;;;8.10;4.35;;;;;;;17.55;71.12;101468.28;5082745;28;20043;-84
2023/07/11 01:07:00;;;;;;;7.53;4.30;;;;;;;17.53;71.18;101475.84;5102881;28;20039;-85
2023/07/11 01:09:26;;;;;;;9.77;4.43;;;;;;;17.49;71.41;101464.59;5110984;28;20035;-85
2023/07/11 01:11:56;;;;;;;5.68;4.55;;;;;;;17.49;71.54;101469.19;5092505;28;20040;-84
2023/07/11 01:14:22;;;;;;;6.60;4.50;;;;;;;17.42;71.59;101474.72;5086033;28;20073;-85
2023/07/11 01:16:47;;;;;;;6.55;4.32;;;;;;;17.38;71.68;101463.44;5105662;28;20027;-85
2023/07/11 01:19:13;;;;;;;7.20;4.88;;;;;;;17.35;71.89;101463.91;5098534;28;20024;-84
2023/07/11 01:21:38;;;;;;;9.07;4.65;;;;;;;17.35;72.02;101460.38;5111863;28;20027;-84
2023/07/11 01:24:04;;;;;;;7.45;4.60;;;;;;;17.29;72.27;101462.09;5097490;28;20043;-85
2023/07/11 01:26:29;;;;;;;6.38;4.38;;;;;;;17.26;72.06;101454.41;5089409;28;20032;-85
2023/07/11 01:28:55;;;;;;;8.63;4.75;;;;;;;17.24;72.44;101460.03;5099224;28;20468;-84
2023/07/11 01:31:21;;;;;;;7.20;4.72;;;;;;;17.20;72.52;101455.28;5091404;28;20058;-84
2023/07/11 01:33:46;;;;;;;7.03;4.93;;;;;;;17.13;72.79;101456.19;5111644;28;20015;-85
2023/07/11 01:36:11;;;;;;;9.23;5.07;;;;;;;17.11;73.10;101463.78;5094991;28;20043;-84
2023/07/11 01:38:37;;;;;;;9.18;4.93;;;;;;;17.07;73.48;101457.09;5090802;28;20016;-85
2023/07/11 01:41:03;;;;;;;7.65;5.03;;;;;;;17.03;73.49;101444.19;5095458;28;20745;-85
2023/07/11 01:43:28;;;;;;;11.05;5.57;;;;;;;17.02;73.46;101448.78;5089174;28;20073;-85
2023/07/11 01:45:53;;;;;;;7.25;5.20;;;;;;;17.01;73.46;101441.69;5094518;28;20417;-85
2023/07/11 01:48:19;;;;;;;7.57;5.28;;;;;;;16.98;73.31;101436.69;5094461;28;20036;-85
2023/07/11 01:50:44;;;;;;;6.90;4.95;;;;;;;17.01;73.68;101440.88;5101956;28;20024;-85
2023/07/11 01:53:10;;;;;;;8.30;5.30;;;;;;;16.99;73.72;101445.69;5103547;28;20049;-84
2023/07/11 01:55:36;;;;;;;7.47;5.10;;;;;;;16.93;73.79;101439.25;5097322;28;20020;-85
2023/07/11 01:58:02;;;;;;;7.35;5.10;;;;;;;16.92;74.04;101443.84;5087259;28;20040;-85
2023/07/11 02:00:27;;;;;;;7.47;5.60;;;;;;;16.91;74.19;101438.63;5089786;28;20020;-85
2023/07/11 02:02:52;;;;;;;9.20;5.18;;;;;;;16.91;74.08;101427.75;5104159;28;20395;-85
2023/07/11 02:05:19;;;;;;;7.78;5.03;;;;;;;16.91;74.00;101430.47;5090554;28;20073;-85
2023/07/11 02:07:45;;;;;;;8.13;5.32;;;;;;;16.86;74.15;101422.97;5099825;28;20024;-85
2023/07/11 02:10:11;;;;;;;9.43;5.65;;;;;;;16.83;74.33;101421.53;5114369;28;20044;-84
2023/07/11 02:12:36;;;;;;;8.77;5.88;;;;;;;16.81;74.51;101415.50;5120898;27;20497;-85
2023/07/11 02:15:01;;;;;;;7.50;5.50;;;;;;;16.76;74.77;101406.34;5089493;28;20024;-84
2023/07/11 02:17:27;;;;;;;7.85;6.00;;;;;;;16.71;74.99;101404.31;5097154;28;20020;-82
2023/07/11 02:19:54;;;;;;;7.57;5.95;;;;;;;16.72;74.66;101395.09;5092659;28;20380;-85
2023/07/11 02:22:19;;;;;;;9.98;5.68;;;;;;;16.72;74.78;101395.09;5091188;28;20020;-79
2023/07/11 02:24:45;;;;;;;8.02;5.55;;;;;;;16.71;74.83;101404.31;5100436;28;20023;-87
2023/07/11 02:27:10;;;;;;;7.18;5.28;;;;;;;16.67;75.06;101394.94;5090081;28;20598;-88
2023/07/11 02:29:35;;;;;;;7.55;5.80;;;;;;;16.64;75.07;101392.66;5090295;28;20035;-87
2023/07/11 02:32:01;;;;;;;9.60;5.72;;;;;;;16.65;75.00;101389.75;5091478;28;20457;-87
2023/07/11 02:34:26;;;;;;;8.13;5.50;;;;;;;16.63;74.91;101385.56;5091334;28;20027;-87
2023/07/11 02:36:52;;;;;;;8.77;5.70;;;;;;;16.60;75.09;101383.28;5087498;28;20701;-86
2023/07/11 02:39:17;;;;;;;7.40;6.20;;;;;;;16.63;75.11;101380.13;5090708;28;20084;-88
2023/07/11 02:41:43;;;;;;;7.40;5.38;;;;;;;16.61;74.95;101376.78;5090143;28;20032;-89
2023/07/11 02:44:08;;;;;;;8.50;6.22;;;;;;;16.57;75.06;101376.44;5090259;28;20081;-88
2023/07/11 02:46:34;;;;;;;7.32;5.72;;;;;;;16.60;74.92;101375.13;5089619;28;20081;-88
2023/07/11 02:48:59;;;;;;;7.00;5.70;;;;;;;16.60;74.55;101369.69;5090485;28;20482;-88
2023/07/11 02:51:24;;;;;;;7.53;5.28;;;;;;;16.58;74.89;101369.94;5096449;28;20519;-87
2023/07/11 02:53:50;;;;;;;7.50;5.60;;;;;;;16.54;74.80;101370.63;5090862;28;20033;-88
2023/07/11 02:56:16;;;;;;;8.38;5.68;;;;;;;16.54;75.04;101373.34;5087626;28;20024;-88
2023/07/11 02:58:45;;;;;;;9.25;5.70;;;;;;;16.54;74.82;101360.56;5098589;28;20127;-88
2023/07/11 03:01:10;;;;;;;7.15;5.50;;;;;;;16.59;74.59;101357.19;5096446;28;20036;-87
2023/07/11 03:03:36;;;;;;;10.82;5.88;;;;;;;16.59;74.47;101349.84;5102172;28;20047;-88
2023/07/11 03:06:01;;;;;;;8.45;5.55;;;;;;;16.58;74.52;101347.38;5095628;28;20046;-88
2023/07/11 03:08:27;;;;;;;9.25;5.40;;;;;;;16.61;74.11;101346.91;5088847;28;20169;-88
2023/07/11 03:10:55;;;;;;;9.20;4.88;;;;;;;16.64;73.97;101346.44;5103653;28;20038;-87
2023/07/11 03:13:21;;;;;;;7.75;5.40;;;;;;;16.68;73.54;101350.38;5116115;28;20131;-88
2023/07/11 03:15:48;;;;;;;10.93;5.20;;;;;;;16.74;73.29;101343.22;5111324;28;20463;-88
2023/07/11 03:18:13;;;;;;;5.88;4.65;;;;;;;16.81;73.16;101344.78;5108408;28;20122;-87
2023/07/11 03:20:39;;;;;;;7.45;4.60;;;;;;;16.82;72.79;101340.22;5104638;28;20585;-88
2023/07/11 03:23:05;;;;;;;8.32;4.78;;;;;;;16.80;72.88;101336.88;5105102;28;20019;-88
2023/07/11 03:25:31;;;;;;;6.57;4.55;;;;;;;16.81;72.92;101333.09;5104423;28;20389;-88
2023/07/11 03:27:56;;;;;;;7.88;4.72;;;;;;;16.81;72.90;101327.66;5102514;28;20039;-88
2023/07/11 03:30:21;;;;;;;7.60;4.82;;;;;;;16.81;72.93;101330.38;5117338;28;20035;-88
2023/07/11 03:32:47;;;;;;;6.85;4.95;;;;;;;16.82;72.97;101335.59;5112907;28;20027;-88
2023/07/11 03:35:12;;;;;;;7.40;4.70;;;;;;;16.81;72.76;101328.47;5116348;28;20036;-88
2023/07/11 03:37:37;;;;;;;6.95;4.65;;;;;;;16.79;72.94;101319.72;5102725;28;20042;-87
2023/07/11 03:40:03;;;;;;;7.47;5.07;;;;;;;16.71;73.41;101322.75;5119184;28;20088;-87
2023/07/11 03:42:29;;;;;;;6.93;4.82;;;;;;;16.77;73.03;101319.13;5103774;28;20028;-87
2023/07/11 03:44:54;;;;;;;10.93;4.90;;;;;;;16.79;72.89;101324.34;5106060;28;20008;-87
2023/07/11 03:47:20;;;;;;;6.25;4.85;;;;;;;16.79;72.75;101319.72;5107395;28;20068;-88
2023/07/11 03:49:45;;;;;;;8.13;4.57;;;;;;;16.85;72.50;101311.72;5102622;28;20024;-87
2023/07/11 03:52:10;;;;;;;8.80;5.00;;;;;;;16.81;72.87;101311.34;5107721;28;20477;-87
2023/07/11 03:54:36;;;;;;;8.45;4.82;;;;;;;16.80;72.95;101306.97;5095616;28;20027;-88
2023/07/11 03:57:04;;;;;;;6.65;4.95;;;;;;;16.80;73.09;101307.78;5110171;28;20034;-88
2023/07/11 03:59:31;;;;;;;9.25;5.03;;;;;;;16.79;73.09;101287.09;5110363;28;20024;-88
2023/07/11 04:01:56;;;;;;;7.47;4.88;;;;;;;16.85;72.81;101290.81;5109701;28;20048;-87
2023/07/11 04:04:21;;;;;;;8.38;5.18;;;;;;;16.99;72.31;101288.75;5101254;28;20039;-88
2023/07/11 04:06:47;;;;;;;8.63;5.20;;;;;;;17.01;72.30;101299.44;5095183;28;20024;-87
2023/07/11 04:09:15;;;;;;;7.72;4.63;;;;;;;17.02;72.34;101291.03;5105486;28;20020;-84
2023/07/11 04:11:40;;;;;;;7.70;4.85;;;;;;;17.07;71.85;101288.47;5090291;28;20392;-86
2023/07/11 04:14:06;;;;;;;8.40;5.20;;;;;;;17.11;71.72;101296.97;5093801;28;20020;-84
2023/07/11 04:16:31;;;;;;;7.95;4.70;;;;;;;17.14;71.41;101296.53;5096608;28;20035;-82
2023/07/11 04:18:57;;;;;;;7.32;4.72;;;;;;;17.26;71.08;101293.84;5092941;28;20036;-83
2023/07/11 04:21:25;;;;;;;7.47;4.43;;;;;;;17.28;70.67;101294.47;5093311;28;20109;-82
2023/07/11 04:23:50;;;;;;;8.55;4.60;;;;;;;17.25;70.89;101292.19;5093779;28;20057;-82
2023/07/11 04:26:16;;;;;;;10.75;4.53;;;;;;;17.37;70.52;101284.91;5109138;28;20026;-82
2023/07/11 04:28:41;;;;;;;8.52;4.20;;;;;;;17.42;70.44;101281.47;5109718;28;20027;-82
2023/07/11 04:31:06;;;;;;;6.47;4.50;;;;;;;17.49;70.27;101284.09;5114219;28;20024;-82
2023/07/11 04:33:32;;;;;;;8.02;4.65;;;;;;;17.81;69.38;101281.09;5106613;28;20020;-82
2023/07/11 04:36:11;;;;;;;8.38;4.63;;;;;;;18.10;68.07;101273.06;5096767;28;20039;-82
2023/07/11 04:38:37;;;;;;;6.55;4.15;;;;;;;18.58;66.16;101274.66;5094201;28;20051;-82
2023/07/11 04:41:03;;;;;;;7.35;4.10;;;;;;;19.34;63.92;101281.06;5109019;28;20039;-82
2023/07/11 04:43:29;;;;;;;7.70;4.30;;;;;;;19.92;62.23;101281.00;5115084;28;20055;-82
2023/07/11 04:45:57;;;;;;;10.18;4.38;;;;;;;20.55;60.02;101278.88;5106667;28;20019;-81
2023/07/11 04:48:23;;;;;;;7.53;4.03;;;;;;;21.21;57.71;101274.44;5101617;28;20051;-82
2023/07/11 04:50:58;;;;;;;8.38;4.00;;;;;;;21.61;56.32;101277.84;5093848;28;20476;-82
2023/07/11 04:53:24;;;;;;;6.20;3.80;;;;;;;21.47;56.43;101277.44;5104303;28;20174;-83
2023/07/11 04:55:58;;;;;;;6.50;3.92;;;;;;;21.76;55.68;101269.75;5088360;28;20494;-81
2023/07/11 04:58:24;;;;;;;9.20;3.97;;;;;;;21.45;56.74;101268.63;5092996;28;20039;-81
2023/07/11 05:00:50;;;;;;;7.07;3.72;;;;;;;21.01;58.22;101264.09;5093720;28;20089;-81
2023/07/11 05:03:15;;;;;;;7.63;3.55;;;;;;;20.61;59.75;101266.09;5109303;28;20043;-81
2023/07/11 05:05:41;;;;;;;6.70;4.43;;;;;;;20.48;60.03;101263.72;5096497;28;20024;-81
2023/07/11 05:08:06;;;;;;;8.98;3.97;;;;;;;21.24;58.20;101256.69;5108788;28;20016;-80
2023/07/11 05:10:31;;;;;;;7.80;3.55;;;;;;;22.47;54.79;101261.44;5092929;28;20418;-81
2023/07/11 05:12:57;;;;;;;7.53;3.92;;;;;;;23.23;52.14;101261.97;5107794;28;20034;-81
2023/07/11 05:15:22;;;;;;;5.18;3.70;;;;;;;23.83;50.41;101264.97;5103724;28;20028;-81
2023/07/11 05:17:47;;;;;;;7.80;3.75;;;;;;;24.83;47.36;101258.94;5107151;28;20027;-81
2023/07/11 05:20:16;;;;;;;5.75;3.47;;;;;;;25.34;46.34;101260.53;5095488;28;20028;-81
2023/07/11 05:22:41;;;;;;;6.25;3.75;;;;;;;25.37;45.83;101257.19;5096568;28;20023;-82
2023/07/11 05:25:07;;;;;;;7.28;3.53;;;;;;;25.67;45.15;101249.84;5104361;28;20031;-80
2023/07/11 05:27:32;;;;;;;6.03;3.85;;;;;;;26.23;44.39;101255.09;5101868;28;20032;-80
2023/07/11 05:29:57;;;;;;;7.25;3.78;;;;;;;26.29;43.77;101248.41;5092027;28;20076;-80
2023/07/11 05:32:23;;;;;;;7.63;3.90;;;;;;;26.41;43.04;101253.47;5092411;28;20035;-81
2023/07/11 05:34:48;;;;;;;6.65;3.60;;;;;;;26.33;42.64;101252.19;5100893;28;20555;-81
2023/07/11 05:37:14;;;;;;;5.82;3.70;;;;;;;26.60;42.73;101248.00;5101478;28;20028;-81
2023/07/11 05:39:39;;;;;;;7.00;3.58;;;;;;;26.88;41.87;101246.28;5103099;28;20046;-81
2023/07/11 05:42:05;;;;;;;7.10;3.60;;;;;;;27.08;41.35;101244.31;5098809;28;20367;-81
2023/07/11 05:44:30;;;;;;;6.60;3.65;;;;;;;27.07;40.85;101248.22;5102200;28;20027;-82
2023/07/11 05:46:59;;;;;;;8.43;4.03;;;;;;;27.32;41.32;101244.22;5096738;28;20031;-81
2023/07/11 05:49:25;;;;;;;5.95;3.35;;;;;;;27.52;40.63;101245.03;5105922;28;20028;-82
2023/07/11 05:51:50;;;;;;;6.88;3.40;;;;;;;27.53;40.97;101230.09;5104679;28;20035;-81
2023/07/11 05:54:16;;;;;;;7.10;3.72;;;;;;;27.89;39.80;101232.16;5103061;28;20028;-82
2023/07/11 05:56:41;;;;;;;6.90;3.40;;;;;;;27.93;39.61;101233.22;5121417;28;20332;-82
2023/07/11 05:59:07;;;;;;;6.13;3.63;;;;;;;28.02;39.86;101221.44;5111813;28;20047;-81
2023/07/11 06:01:32;;;;;;;6.75;3.78;;;;;;;28.59;38.45;101226.66;5102221;28;20560;-81
2023/07/11 06:04:09;;;;;;;6.85;3.78;;;;;;;28.98;37.60;101218.88;5113677;28;20024;-80
2023/07/11 06:06:36;;;;;;;6.20;3.58;;;;;;;28.70;38.00;101213.41;5078842;28;20119;-81
2023/07/11 06:09:01;;;;;;;5.10;3.60;;;;;;;29.00;38.10;101214.66;5095388;28;20039;-81
2023/07/11 06:11:26;;;;;;;7.57;3.92;;;;;;;29.09;37.82;101214.72;5104065;28;20024;-82
2023/07/11 06:13:52;;;;;;;6.93;3.10;;;;;;;29.23;38.13;101211.06;5103214;28;20479;-80
2023/07/11 06:16:24;;;;;;;9.00;3.55;;;;;;;29.39;37.21;101209.56;5100052;28;20074;-81
2023/07/11 06:18:51;;;;;;;9.70;4.03;;;;;;;29.63;36.48;101205.63;5089724;28;20115;-81
2023/07/11 06:21:17;;;;;;;6.75;3.70;;;;;;;30.17;35.44;101199.97;5097087;28;20015;-81
2023/07/11 06:23:46;;;;;;;5.97;3.25;;;;;;;30.64;34.98;101196.66;5104155;28;20063;-81
2023/07/11 06:26:15;;;;;;;7.22;3.72;;;;;;;30.25;35.88;101192.81;5097869;28;20024;-81
2023/07/11 06:28:43;;;;;;;11.02;3.55;;;;;;;30.29;35.27;101192.97;5093371;28;20430;-81
2023/07/11 06:31:08;;;;;;;8.23;3.35;;;;;;;30.59;35.72;101190.47;5095138;28;20040;-82
2023/07/11 06:33:33;;;;;;;5.65;3.35;;;;;;;30.93;34.89;101194.38;5082304;28;20031;-81
2023/07/11 06:36:03;;;;;;;8.85;3.70;;;;;;;31.44;33.66;101200.19;5096272;28;20457;-81
2023/07/11 06:38:29;;;;;;;5.53;3.20;;;;;;;31.45;33.27;101202.66;5107473;28;20073;-82
2023/07/11 06:40:55;;;;;;;5.45;3.40;;;;;;;31.28;33.42;101203.50;5099869;28;20032;-81
2023/07/11 06:43:21;;;;;;;6.20;3.25;;;;;;;30.96;34.84;101191.75;5108613;28;20043;-81
2023/07/11 06:45:47;;;;;;;8.27;3.42;;;;;;;31.60;33.06;101197.69;5099488;28;20032;-81
2023/07/11 06:48:14;;;;;;;6.05;3.05;;;;;;;31.54;33.12;101194.28;5089789;28;20106;-82
2023/07/11 06:50:39;;;;;;;7.78;3.53;;;;;;;31.87;32.44;101196.47;5098915;28;20359;-81
2023/07/11 06:53:05;;;;;;;7.22;3.55;;;;;;;31.74;32.36;101197.53;5093558;28;20024;-81
2023/07/11 06:55:30;;;;;;;4.75;3.13;;;;;;;31.97;32.44;101188.88;5104362;28;20079;-81
2023/07/11 06:57:56;;;;;;;6.55;3.40;;;;;;;32.13;32.05;101189.13;5103763;28;20038;-81
2023/07/11 07:00:21;;;;;;;7.30;3.25;;;;;;;32.55;31.51;101180.88;5100208;28;20042;-82
2023/07/11 07:02:48;;;;;;;6.53;2.92;;;;;;;32.74;30.91;101183.16;5097934;28;20039;-82
2023/07/11 07:05:13;;;;;;;6.78;2.83;;;;;;;32.47;30.89;101185.34;5101381;28;20024;-82
2023/07/11 07:07:39;;;;;;;5.78;3.00;;;;;;;32.90;30.90;101179.75;5105418;28;20127;-82
2023/07/11 07:10:05;;;;;;;4.53;2.70;;;;;;;32.78;31.29;101178.53;5102951;28;20471;-81
2023/07/11 07:12:31;;;;;;;7.82;3.30;;;;;;;33.54;29.96;101180.41;5077989;28;20027;-82
2023/07/11 07:14:57;;;;;;;3.58;2.55;;;;;;;33.82;29.81;101180.56;5104373;28;20039;-82
2023/07/11 07:17:23;;;;;;;6.55;2.80;;;;;;;33.85;29.82;101174.28;5103093;28;20121;-82
2023/07/11 07:19:49;;;;;;;3.92;2.50;;;;;;;34.36;29.45;101175.88;5101526;28;20027;-82
2023/07/11 07:22:15;;;;;;;4.40;2.25;;;;;;;34.70;28.12;101167.31;5109399;28;20046;-82
2023/07/11 07:24:45;;;;;;;4.20;2.70;;;;;;;34.53;28.34;101166.44;5099474;28;20391;-82
2023/07/11 07:27:11;;;;;;;5.15;2.38;;;;;;;33.84;29.70;101157.88;5092554;28;20024;-81
2023/07/11 07:29:36;;;;;;;2.95;2.00;;;;;;;34.81;28.35;101167.63;5095389;28;20055;-82
2023/07/11 07:32:02;;;;;;;3.33;2.50;;;;;;;35.02;27.66;101157.06;5102694;28;20035;-82
2023/07/11 07:34:27;;;;;;;4.03;2.30;;;;;;;35.51;27.13;101157.94;5099657;28;20311;-82
2023/07/11 07:36:52;;;;;;;3.17;2.08;;;;;;;35.69;27.14;101154.78;5091348;28;20456;-82
2023/07/11 07:39:18;;;;;;;4.75;2.45;;;;;;;35.25;27.33;101152.84;5108557;28;20024;-82
2023/07/11 07:41:43;;;;;;;3.90;2.10;;;;;;;34.92;28.49;101155.56;5105990;28;20367;-81
2023/07/11 07:44:09;;;;;;;5.25;2.50;;;;;;;35.71;26.51;101163.63;5103435;28;20384;-82
2023/07/11 07:46:34;;;;;;;5.93;2.35;;;;;;;35.62;26.80;101147.00;5099901;28;20106;-82
2023/07/11 07:48:59;;;;;;;4.63;2.60;;;;;;;35.60;27.61;101152.16;5091531;28;20391;-82
2023/07/11 07:51:25;;;;;;;5.07;2.30;;;;;;;35.01;27.17;101143.41;5100314;28;20028;-82
2023/07/11 07:53:50;;;;;;;5.32;2.17;;;;;;;35.16;28.24;101150.22;5104206;28;20031;-81
2023/07/11 07:56:20;;;;;;;4.57;2.40;;;;;;;34.53;29.02;101141.28;5095650;28;20392;-82
2023/07/11 07:58:46;;;;;;;5.70;2.40;;;;;;;35.10;27.96;101135.69;5103569;28;20036;-80
2023/07/11 08:01:12;;;;;;;3.25;2.42;;;;;;;35.13;27.83;101140.53;5100878;28;20088;-80
2023/07/11 08:03:38;;;;;;;4.82;2.38;;;;;;;34.85;28.10;101135.78;5110146;28;20079;-80
2023/07/11 08:06:03;;;;;;;5.93;2.45;;;;;;;33.99;29.00;101122.84;5103924;28;20020;-82
2023/07/11 08:08:29;;;;;;;5.35;2.35;;;;;;;33.86;29.75;101131.22;5101596;28;20063;-80
2023/07/11 08:10:54;;;;;;;5.93;2.22;;;;;;;34.09;28.67;101122.38;5101754;28;20028;-80
2023/07/11 08:13:19;;;;;;;4.68;2.40;;;;;;;34.28;28.61;101121.75;5096575;28;20020;-80
2023/07/11 08:15:45;;;;;;;5.03;2.10;;;;;;;34.12;28.89;101115.28;5098178;28;20084;-80
2023/07/11 08:18:10;;;;;;;6.03;2.20;;;;;;;33.68;28.84;101116.72;5106507;28;20387;-80
2023/07/11 08:20:36;;;;;;;5.88;2.50;;;;;;;34.29;28.81;101117.00;5105972;28;20028;-80
2023/07/11 08:23:02;;;;;;;5.55;2.20;;;;;;;33.51;30.42;101114.16;5107747;28;20422;-82
2023/07/11 08:25:27;;;;;;;5.25;2.47;;;;;;;34.48;28.53;101112.78;5114439;28;20027;-80
2023/07/11 08:27:53;;;;;;;5.40;2.20;;;;;;;34.79;28.13;101100.03;5110653;28;20514;-80
2023/07/11 08:30:18;;;;;;;7.95;2.53;;;;;;;34.83;28.68;101109.34;5103282;28;20536;-80
2023/07/11 08:32:44;;;;;;;5.50;2.40;;;;;;;35.18;27.76;101101.09;5096865;28;20054;-80
2023/07/11 08:35:09;;;;;;;4.50;2.20;;;;;;;35.08;27.99;101098.84;5115636;28;20076;-81
2023/07/11 08:37:35;;;;;;;6.70;2.50;;;;;;;35.34;27.94;101103.09;5106819;28;20024;-82
2023/07/11 08:40:01;;;;;;;4.68;2.30;;;;;;;35.33;27.74;101104.25;5102080;28;20471;-82
2023/07/11 08:42:40;;;;;;;4.32;2.63;;;;;;;35.18;27.15;101098.31;5098844;28;20035;-80
2023/07/11 08:45:25;;;;;;;4.88;2.42;;;;;;;34.92;26.65;101091.22;5066073;28;20023;-80
2023/07/11 08:48:05;;;;;;;4.07;2.40;;;;;;;34.62;27.66;101088.00;5085905;28;20040;-80
2023/07/11 08:50:36;;;;;;;7.18;2.30;;;;;;;34.06;27.62;101089.56;5100699;28;20387;-80
2023/07/11 08:53:08;;;;;;;5.32;2.38;;;;;;;34.55;27.45;101091.41;5095236;28;20016;-80
2023/07/11 08:55:35;;;;;;;4.82;2.22;;;;;;;34.73;27.12;101082.72;5091316;28;20056;-81
2023/07/11 08:58:02;;;;;;;5.88;2.50;;;;;;;34.56;26.13;101083.84;5097104;28;20080;-80
2023/07/11 09:00:28;;;;;;;6.95;2.53;;;;;;;34.22;27.27;101086.03;5110055;28;20036;-80
2023/07/11 09:02:55;;;;;;;4.57;2.22;;;;;;;34.58;26.78;101087.91;5108348;28;20036;-80
2023/07/11 09:05:55;;;;;;;4.05;2.13;;;;;;;34.51;26.49;101087.72;5098244;28;20034;-80
2023/07/11 09:08:21;;;;;;;4.00;2.25;;;;;;;34.89;26.04;101075.16;5093117;28;20070;-81
2023/07/11 09:11:01;;;;;;;6.05;2.47;;;;;;;34.22;26.30;101075.69;5111259;28;20079;-80
2023/07/11 09:13:35;;;;;;;4.00;2.25;;;;;;;33.15;28.52;101066.28;5080512;28;20036;-80
2023/07/11 09:16:22;;;;;;;6.30;2.33;;;;;;;32.97;28.69;101065.69;5086070;28;20056;-81
2023/07/11 09:18:50;;;;;;;6.35;2.88;;;;;;;33.23;28.30;101072.94;5077104;28;20077;-81
2023/07/11 09:21:30;;;;;;;3.60;2.30;;;;;;;33.43;29.58;101070.41;5081352;28;20031;-80
2023/07/11 09:24:32;;;;;;;4.93;2.22;;;;;;;33.35;28.24;101061.78;5096007;28;20114;-81
2023/07/11 09:27:25;;;;;;;3.88;2.13;;;;;;;33.13;29.75;101070.59;5061640;28;21588;-80
2023/07/11 09:29:50;;;;;;;4.88;2.33;;;;;;;34.02;28.92;101063.50;5083368;28;20186;-81
2023/07/11 09:32:16;;;;;;;5.22;2.17;;;;;;;33.28;28.78;101053.19;5078301;28;20036;-81
2023/07/11 09:34:47;;;;;;;4.55;2.30;;;;;;;32.82;29.27;101055.22;5105356;28;20032;-80
2023/07/11 09:37:33;;;;;;;5.30;2.28;;;;;;;33.66;27.88;101057.63;5079578;28;20035;-81
2023/07/11 09:40:04;;;;;;;6.35;2.60;;;;;;;34.23;26.50;101049.38;5092868;28;20103;-81
2023/07/11 09:42:44;;;;;;;6.53;2.38;;;;;;;34.16;27.07;101054.75;5078219;28;20367;-80
2023/07/11 09:45:12;;;;;;;4.00;2.20;;;;;;;35.10;26.30;101057.34;5096536;28;20496;-80
2023/07/11 09:47:39;;;;;;;5.05;2.22;;;;;;;34.54;26.75;101055.41;5091576;28;20380;-80
2023/07/11 09:50:31;;;;;;;3.60;2.20;;;;;;;34.92;25.53;101040.88;5076474;28;20471;-80
2023/07/11 09:52:58;;;;;;;6.28;2.25;;;;;;;32.88;28.51;101053.81;5074615;28;20115;-80
2023/07/11 09:55:28;;;;;;;6.57;2.40;;;;;;;33.07;28.94;101051.28;5091353;28;20065;-80
2023/07/11 09:57:54;;;;;;;8.20;2.50;;;;;;;32.86;28.18;101047.75;5101635;28;20035;-80
2023/07/11 10:00:19;;;;;;;7.53;2.35;;;;;;;33.06;27.06;101048.88;5110074;28;20111;-80
2023/07/11 10:02:46;;;;;;;3.85;2.30;;;;;;;33.97;25.86;101053.41;5107578;28;20066;-80
2023/07/11 10:05:19;;;;;;;4.25;2.40;;;;;;;33.05;27.41;101045.25;5096065;28;20103;-80
2023/07/11 10:07:44;;;;;;;5.10;2.00;;;;;;;32.43;28.47;101045.06;5113663;28;20375;-80
2023/07/11 10:10:28;;;;;;;4.63;2.40;;;;;;;32.10;28.71;101045.81;5074435;28;20031;-80
2023/07/11 10:12:53;;;;;;;4.68;2.50;;;;;;;32.14;29.33;101032.81;5108615;28;20032;-80
2023/07/11 10:15:19;;;;;;;3.70;2.20;;;;;;;31.92;29.38;101035.97;5098130;28;20031;-80
2023/07/11 10:17:44;;;;;;;6.95;2.38;;;;;;;31.61;30.13;101022.03;5085635;28;20039;-80
2023/07/11 10:20:35;;;;;;;6.45;2.40;;;;;;;31.48;30.55;101025.88;5096616;28;20051;-80
2023/07/11 10:23:03;;;;;;;5.07;2.17;;;;;;;32.14;29.94;101032.81;5085373;28;20059;-80
2023/07/11 10:25:30;;;;;;;5.30;2.50;;;;;;;32.00;29.50;101021.97;5092112;28;20528;-80
2023/07/11 10:28:21;;;;;;;6.53;2.85;;;;;;;32.31;28.85;101025.50;5100904;28;20051;-80
2023/07/11 10:30:47;;;;;;;5.97;2.33;;;;;;;31.85;30.93;101022.59;5068170;28;20082;-80
2023/07/11 10:33:22;;;;;;;6.53;2.25;;;;;;;31.64;30.30;101016.94;5109301;28;20478;-80
2023/07/11 10:35:52;;;;;;;8.27;2.30;;;;;;;31.64;30.99;101014.16;5094726;28;20054;-80
2023/07/11 10:38:21;;;;;;;4.40;2.17;;;;;;;33.19;28.66;101010.63;5093549;28;20039;-80
2023/07/11 10:40:49;;;;;;;4.65;2.03;;;;;;;32.80;30.02;101011.72;5104538;28;20039;-80
2023/07/11 10:43:32;;;;;;;4.88;2.38;;;;;;;32.64;30.08;101008.78;5093280;28;20035;-80
2023/07/11 10:46:23;;;;;;;5.05;2.22;;;;;;;33.57;28.09;101006.66;5085852;28;20108;-81
2023/07/11 10:48:51;;;;;;;3.97;2.63;;;;;;;33.52;27.56;100995.78;5072327;28;20024;-81
2023/07/11 10:51:27;;;;;;;4.72;2.20;;;;;;;33.22;28.59;101001.56;5078642;28;20032;-81
2023/07/11 10:54:04;;;;;;;5.28;2.47;;;;;;;34.58;27.37;101012.44;5053732;28;20400;-80
2023/07/11 10:56:38;;;;;;;4.63;2.33;;;;;;;34.79;26.74;101005.75;5079477;28;20020;-81
2023/07/11 10:59:04;;;;;;;5.68;2.40;;;;;;;34.70;26.28;101005.13;5058001;28;20036;-81
2023/07/11 11:01:36;;;;;;;3.22;1.80;;;;;;;34.53;26.84;101006.28;5108179;28;20026;-80
2023/07/11 11:04:26;;;;;;;3.40;2.42;;;;;;;35.56;25.36;100995.28;5074814;28;20400;-81
2023/07/11 11:06:58;;;;;;;5.40;2.15;;;;;;;35.08;26.03;100998.13;5069280;28;20036;-80
2023/07/11 11:09:35;;;;;;;4.88;2.20;;;;;;;35.35;26.13;100998.34;5066945;28;20035;-81
2023/07/11 11:12:39;;;;;;;3.53;2.20;;;;;;;35.43;26.30;101002.13;5081538;28;20020;-81
2023/07/11 11:15:14;;;;;;;5.47;2.30;;;;;;;35.33;25.61;101000.69;5089979;22;20051;-81
2023/07/11 11:17:43;;;;;;;4.75;2.03;;;;;;;34.76;25.96;100992.53;5112589;28;20375;-80
2023/07/11 11:20:20;;;;;;;6.90;2.50;;;;;;;35.07;26.51;100996.50;5104905;28;20043;-80
2023/07/11 11:23:10;;;;;;;4.35;2.20;;;;;;;34.68;25.71;100994.31;5104309;28;20094;-80
2023/07/11 11:26:11;;;;;;;5.28;2.10;;;;;;;34.53;26.44;100976.34;5097331;28;20101;-81
2023/07/11 11:29:01;;;;;;;5.85;2.38;;;;;;;32.93;28.53;100972.75;5094336;28;20035;-81